createdAt,value
2022-09-28T00:02:12.869Z,2.20
2022-09-28T00:04:39.447Z,1.95
2022-09-28T00:07:06.017Z,2.30
2022-09-28T00:09:32.557Z,1.90
2022-09-28T00:11:59.809Z,1.90
2022-09-28T00:14:26.467Z,1.73
2022-09-28T00:16:53.155Z,1.77
2022-09-28T00:19:19.673Z,1.92
2022-09-28T00:21:47.212Z,2.00
2022-09-28T00:24:19.224Z,1.58
2022-09-28T00:26:49.305Z,1.80
2022-09-28T00:29:22.207Z,2.10
2022-09-28T00:31:52.302Z,1.73
2022-09-28T00:34:19.132Z,1.15
2022-09-28T00:36:47.315Z,1.30
2022-09-28T00:39:15.537Z,1.52
2022-09-28T00:41:42.829Z,1.50
2022-09-28T00:44:24.605Z,1.45
2022-09-28T00:46:54.154Z,2.08
2022-09-28T00:49:22.940Z,1.60
2022-09-28T00:51:49.493Z,1.50
2022-09-28T00:54:16.370Z,1.60
2022-09-28T00:56:44.706Z,1.75
2022-09-28T00:59:11.288Z,1.88
2022-09-28T01:01:37.903Z,1.70
2022-09-28T01:04:05.678Z,1.90
2022-09-28T01:06:34.540Z,2.50
2022-09-28T01:09:04.779Z,1.98
2022-09-28T01:11:32.454Z,2.33
2022-09-28T01:13:59.599Z,2.00
2022-09-28T01:16:47.615Z,2.35
2022-09-28T01:19:33.158Z,2.85
2022-09-28T01:22:27.671Z,3.30
2022-09-28T01:25:08.129Z,3.60
2022-09-28T01:27:44.988Z,3.55
2022-09-28T01:30:21.360Z,3.08
2022-09-28T01:32:56.275Z,3.38
2022-09-28T01:35:35.420Z,3.55
2022-09-28T01:38:08.242Z,3.08
2022-09-28T01:40:35.255Z,3.60
2022-09-28T01:43:28.517Z,3.10
2022-09-28T01:45:56.854Z,3.42
2022-09-28T01:48:29.442Z,3.95
2022-09-28T01:50:58.922Z,3.80
2022-09-28T01:53:36.568Z,3.67
2022-09-28T01:56:09.079Z,4.15
2022-09-28T01:58:42.601Z,4.10
2022-09-28T02:01:15.161Z,4.40
2022-09-28T02:03:49.316Z,4.25
2022-09-28T02:06:24.544Z,4.93
2022-09-28T02:08:55.150Z,4.90
2022-09-28T02:11:22.463Z,4.90
2022-09-28T02:13:56.832Z,5.28
2022-09-28T02:16:34.880Z,5.38
2022-09-28T02:19:02.326Z,4.88
2022-09-28T02:21:40.920Z,4.03
2022-09-28T02:24:11.857Z,4.55
2022-09-28T02:26:41.302Z,4.38
2022-09-28T02:29:08.334Z,4.55
2022-09-28T02:31:35.467Z,4.63
2022-09-28T02:34:02.340Z,4.28
2022-09-28T02:36:29.159Z,5.20
2022-09-28T02:38:57.304Z,4.93
2022-09-28T02:41:37.673Z,4.82
2022-09-28T02:44:34.541Z,5.47
2022-09-28T02:47:58.541Z,4.85
2022-09-28T02:50:33.244Z,4.72
2022-09-28T02:53:02.317Z,3.97
2022-09-28T02:55:40.567Z,4.65
2022-09-28T02:58:10.007Z,4.10
2022-09-28T03:01:00.519Z,4.50
2022-09-28T03:03:55.558Z,3.95
2022-09-28T03:06:34.254Z,4.20
2022-09-28T03:09:05.279Z,4.18
2022-09-28T03:11:42.735Z,4.47
2022-09-28T03:14:10.088Z,4.22
2022-09-28T03:16:36.717Z,4.70
2022-09-28T03:19:03.284Z,4.20
2022-09-28T03:21:29.831Z,4.78
2022-09-28T03:23:56.357Z,4.30
2022-09-28T03:26:22.899Z,4.65
2022-09-28T03:28:49.444Z,4.90
2022-09-28T03:31:15.993Z,4.28
2022-09-28T03:33:42.580Z,4.57
2022-09-28T03:36:09.663Z,4.70
2022-09-28T03:38:36.245Z,5.22
2022-09-28T03:41:02.830Z,5.13
2022-09-28T03:43:31.111Z,5.43
2022-09-28T03:46:00.032Z,5.05
2022-09-28T03:48:33.182Z,5.18
2022-09-28T03:51:07.129Z,5.20
2022-09-28T03:53:33.964Z,5.55
2022-09-28T03:56:05.434Z,5.47
2022-09-28T03:58:32.119Z,5.22
2022-09-28T04:01:07.586Z,4.60
2022-09-28T04:03:34.867Z,5.47
2022-09-28T04:06:01.464Z,4.65
2022-09-28T04:08:28.215Z,4.72
2022-09-28T04:10:59.073Z,4.80
2022-09-28T04:13:27.712Z,4.85
2022-09-28T04:15:55.751Z,4.05
2022-09-28T04:18:22.965Z,4.18
2022-09-28T04:21:08.154Z,3.92
2022-09-28T04:23:39.180Z,4.57
2022-09-28T04:26:08.048Z,4.28
2022-09-28T04:28:53.143Z,4.68
2022-09-28T04:31:22.199Z,4.25
2022-09-28T04:33:48.780Z,4.70
2022-09-28T04:36:15.478Z,4.43
2022-09-28T04:38:52.761Z,4.53
2022-09-28T04:41:19.916Z,4.85
2022-09-28T04:43:50.216Z,4.82
2022-09-28T04:46:17.018Z,4.82
2022-09-28T04:48:43.609Z,5.85
2022-09-28T04:51:10.195Z,6.65
2022-09-28T04:53:36.721Z,5.40
2022-09-28T04:56:06.372Z,6.18
2022-09-28T04:58:34.706Z,6.03
2022-09-28T05:01:07.030Z,6.72
2022-09-28T05:03:34.229Z,5.97
2022-09-28T05:06:01.524Z,6.78
2022-09-28T05:08:28.629Z,5.70
2022-09-28T05:11:05.869Z,6.47
2022-09-28T05:13:35.685Z,6.50
2022-09-28T05:16:05.448Z,5.60
2022-09-28T05:18:32.317Z,6.38
2022-09-28T05:20:58.881Z,6.22
2022-09-28T05:23:25.375Z,6.78
2022-09-28T05:25:51.959Z,6.50
2022-09-28T05:28:27.488Z,6.28
2022-09-28T05:30:58.639Z,7.30
2022-09-28T05:33:25.151Z,6.70
2022-09-28T05:35:55.137Z,8.32
2022-09-28T05:38:23.898Z,8.88
2022-09-28T05:40:50.551Z,8.25
2022-09-28T05:43:17.101Z,8.20
2022-09-28T05:45:43.736Z,8.55
2022-09-28T05:48:10.921Z,9.20
2022-09-28T05:50:37.507Z,9.27
2022-09-28T05:53:06.340Z,10.00
2022-09-28T05:55:33.388Z,8.77
2022-09-28T05:58:00.799Z,9.45
2022-09-28T06:00:28.172Z,9.18
2022-09-28T06:03:00.115Z,9.95
2022-09-28T06:05:28.191Z,9.68
2022-09-28T06:08:00.919Z,10.32
2022-09-28T06:10:28.529Z,10.07
2022-09-28T06:12:55.804Z,10.27
2022-09-28T06:15:24.139Z,10.10
2022-09-28T06:18:07.811Z,9.70
2022-09-28T06:20:38.534Z,9.15
2022-09-28T06:23:05.252Z,9.00
2022-09-28T06:25:32.212Z,9.68
2022-09-28T06:28:06.879Z,9.70
2022-09-28T06:30:34.955Z,9.95
2022-09-28T06:33:02.286Z,9.15
2022-09-28T06:35:30.512Z,8.85
2022-09-28T06:37:58.409Z,9.10
2022-09-28T06:40:25.219Z,8.50
2022-09-28T06:42:56.052Z,9.65
2022-09-28T06:45:24.526Z,8.55
2022-09-28T06:47:58.462Z,9.00
2022-09-28T06:50:26.465Z,8.90
2022-09-28T06:52:54.138Z,7.93
2022-09-28T06:55:21.551Z,7.88
2022-09-28T06:57:48.753Z,8.13
2022-09-28T07:00:15.533Z,7.13
2022-09-28T07:02:42.117Z,7.43
2022-09-28T07:05:12.390Z,6.55
2022-09-28T07:07:40.398Z,6.47
2022-09-28T07:10:08.381Z,5.90
2022-09-28T07:12:35.878Z,5.70
2022-09-28T07:15:02.485Z,6.63
2022-09-28T07:17:29.353Z,6.22
2022-09-28T07:19:59.946Z,6.38
2022-09-28T07:22:41.142Z,6.43
2022-09-28T07:25:09.713Z,5.53
2022-09-28T07:27:37.286Z,6.45
2022-09-28T07:30:07.447Z,7.18
2022-09-28T07:32:37.437Z,7.25
2022-09-28T07:35:09.664Z,6.95
2022-09-28T07:37:36.822Z,6.05
2022-09-28T07:40:23.673Z,6.97
2022-09-28T07:42:50.687Z,6.78
2022-09-28T07:45:17.852Z,7.28
2022-09-28T07:47:46.092Z,7.43
2022-09-28T07:50:13.416Z,6.97
2022-09-28T07:52:39.997Z,6.35
2022-09-28T07:55:07.594Z,5.97
2022-09-28T07:57:34.811Z,6.05
2022-09-28T08:00:02.341Z,6.40
2022-09-28T08:02:29.013Z,6.50
2022-09-28T08:04:56.379Z,6.05
2022-09-28T08:07:24.251Z,5.75
2022-09-28T08:09:51.127Z,6.00
2022-09-28T08:12:19.713Z,5.25
2022-09-28T08:14:46.887Z,6.10
2022-09-28T08:17:13.578Z,5.65
2022-09-28T08:19:58.672Z,4.88
2022-09-28T08:22:25.195Z,5.85
2022-09-28T08:24:51.917Z,5.35
2022-09-28T08:27:18.480Z,5.88
2022-09-28T08:29:45.052Z,6.28
2022-09-28T08:32:11.604Z,5.85
2022-09-28T08:34:40.019Z,5.10
2022-09-28T08:37:09.103Z,4.72
2022-09-28T08:39:36.333Z,3.88
2022-09-28T08:42:26.124Z,4.25
2022-09-28T08:44:58.016Z,3.85
2022-09-28T08:47:47.901Z,2.55
2022-09-28T08:50:18.613Z,2.50
2022-09-28T08:52:48.617Z,2.70
2022-09-28T08:55:31.299Z,2.25
2022-09-28T08:58:10.686Z,1.63
2022-09-28T09:00:49.744Z,1.70
2022-09-28T09:03:21.049Z,2.15
